createdAt,value
2023-02-06T00:02:05.662Z,67.50
2023-02-06T00:04:32.367Z,67.63
2023-02-06T00:06:58.955Z,67.79
2023-02-06T00:09:25.559Z,69.51
2023-02-06T00:11:52.128Z,70.97
2023-02-06T00:14:18.714Z,71.51
2023-02-06T00:16:45.310Z,72.05
2023-02-06T00:19:11.941Z,71.05
2023-02-06T00:21:38.539Z,69.73
2023-02-06T00:24:05.374Z,69.59
2023-02-06T00:26:32.056Z,67.04
2023-02-06T00:28:58.967Z,68.14
2023-02-06T00:31:25.732Z,68.80
2023-02-06T00:33:52.363Z,68.26
2023-02-06T00:36:19.020Z,68.21
2023-02-06T00:38:47.015Z,67.71
2023-02-06T00:41:13.595Z,67.20
2023-02-06T00:43:40.305Z,67.77
2023-02-06T00:46:07.011Z,66.79
2023-02-06T00:48:33.645Z,67.51
2023-02-06T00:51:00.264Z,67.48
2023-02-06T00:53:27.087Z,65.18
2023-02-06T00:55:53.650Z,67.14
2023-02-06T00:58:20.367Z,68.15
2023-02-06T01:00:46.958Z,67.90
2023-02-06T01:03:13.552Z,66.49
2023-02-06T01:05:41.479Z,67.37
2023-02-06T01:08:08.166Z,69.21
2023-02-06T01:10:35.060Z,69.72
2023-02-06T01:13:01.662Z,70.70
2023-02-06T01:15:28.398Z,71.76
2023-02-06T01:17:55.040Z,70.24
2023-02-06T01:20:21.745Z,70.91
2023-02-06T01:22:48.647Z,70.99
2023-02-06T01:25:15.299Z,69.40
2023-02-06T01:27:41.921Z,70.17
2023-02-06T01:30:09.451Z,69.50
2023-02-06T01:32:40.469Z,70.29
2023-02-06T01:35:09.151Z,70.26
2023-02-06T01:37:36.535Z,70.38
2023-02-06T01:40:07.426Z,71.54
2023-02-06T01:42:35.754Z,72.73
2023-02-06T01:45:27.056Z,74.47
2023-02-06T01:48:05.894Z,74.29
2023-02-06T01:50:34.944Z,73.68
2023-02-06T01:53:05.655Z,75.07
2023-02-06T01:55:34.713Z,72.51
2023-02-06T01:58:02.710Z,73.40
2023-02-06T02:00:29.327Z,75.80
2023-02-06T02:02:55.955Z,75.60
2023-02-06T02:05:22.590Z,75.82
2023-02-06T02:08:08.450Z,76.15
2023-02-06T02:10:35.280Z,75.65
2023-02-06T02:13:05.006Z,74.49
2023-02-06T02:16:00.948Z,73.90
2023-02-06T02:18:30.570Z,72.70
2023-02-06T02:21:15.723Z,72.83
2023-02-06T02:24:10.275Z,72.18
2023-02-06T02:26:36.813Z,72.47
2023-02-06T02:29:32.548Z,71.16
2023-02-06T02:32:24.336Z,70.25
2023-02-06T02:35:05.492Z,70.84
2023-02-06T02:38:01.380Z,70.28
2023-02-06T02:40:43.564Z,71.38
2023-02-06T02:43:32.028Z,70.75
2023-02-06T02:46:10.853Z,69.77
2023-02-06T02:48:43.216Z,70.32
2023-02-06T02:51:11.478Z,70.05
2023-02-06T02:53:38.223Z,70.43
2023-02-06T02:56:34.209Z,69.78
2023-02-06T02:59:08.864Z,70.41
2023-02-06T03:01:42.942Z,69.41
2023-02-06T03:04:23.400Z,68.45
2023-02-06T03:07:15.771Z,69.21
2023-02-06T03:10:08.532Z,70.68
2023-02-06T03:13:15.034Z,70.39
2023-02-06T03:15:56.553Z,70.89
2023-02-06T03:18:40.458Z,69.53
2023-02-06T03:21:11.554Z,69.41
2023-02-06T03:23:43.229Z,70.38
2023-02-06T03:26:14.349Z,70.76
2023-02-06T03:28:54.179Z,70.61
2023-02-06T03:31:29.360Z,71.06
2023-02-06T03:34:09.852Z,71.76
2023-02-06T03:36:36.584Z,71.96
2023-02-06T03:39:04.066Z,71.10
2023-02-06T03:41:35.770Z,71.56
2023-02-06T03:44:05.729Z,71.04
2023-02-06T03:46:34.328Z,70.66
2023-02-06T03:49:06.617Z,70.84
2023-02-06T03:52:06.092Z,70.22
2023-02-06T03:54:37.529Z,70.59
2023-02-06T03:57:06.934Z,70.75
2023-02-06T03:59:33.709Z,72.63
2023-02-06T04:02:03.006Z,73.44
2023-02-06T04:04:38.210Z,71.94
2023-02-06T04:07:11.666Z,71.71
2023-02-06T04:09:39.639Z,71.61
2023-02-06T04:12:07.097Z,71.05
2023-02-06T04:14:33.990Z,71.32
2023-02-06T04:17:00.605Z,72.96
2023-02-06T04:19:27.206Z,71.16
2023-02-06T04:21:53.817Z,71.77
2023-02-06T04:24:20.577Z,71.16
2023-02-06T04:26:47.169Z,70.73
2023-02-06T04:29:13.782Z,71.68
2023-02-06T04:31:41.038Z,72.26
2023-02-06T04:34:08.233Z,71.61
2023-02-06T04:36:34.888Z,72.03
2023-02-06T04:39:02.340Z,72.82
2023-02-06T04:41:29.075Z,73.50
2023-02-06T04:43:57.048Z,73.37
2023-02-06T04:46:23.826Z,72.71
2023-02-06T04:48:51.050Z,72.71
2023-02-06T04:51:17.707Z,72.88
2023-02-06T04:53:44.526Z,73.36
2023-02-06T04:56:12.638Z,73.16
2023-02-06T04:58:40.359Z,72.15
2023-02-06T05:01:07.486Z,73.07
2023-02-06T05:03:34.445Z,72.15
2023-02-06T05:06:02.422Z,73.38
2023-02-06T05:08:29.570Z,73.89
2023-02-06T05:10:56.540Z,72.46
2023-02-06T05:13:23.478Z,73.69
2023-02-06T05:15:50.447Z,72.08
2023-02-06T05:18:17.760Z,73.04
2023-02-06T05:20:44.526Z,72.67
2023-02-06T05:23:11.515Z,72.04
2023-02-06T05:25:38.340Z,72.94
2023-02-06T05:28:05.339Z,73.03
2023-02-06T05:30:33.493Z,72.80
2023-02-06T05:33:00.470Z,73.65
2023-02-06T05:35:27.827Z,73.59
2023-02-06T05:37:54.646Z,74.23
2023-02-06T05:40:21.253Z,74.82
2023-02-06T05:42:47.868Z,72.98
2023-02-06T05:45:14.624Z,73.07
2023-02-06T05:47:41.246Z,72.67
2023-02-06T05:50:08.270Z,71.95
2023-02-06T05:52:34.888Z,73.27
2023-02-06T05:55:01.489Z,73.36
2023-02-06T05:57:28.186Z,74.76
2023-02-06T05:59:54.823Z,74.88
2023-02-06T06:02:21.404Z,75.05
2023-02-06T06:04:48.121Z,75.16
2023-02-06T06:07:14.812Z,73.87
2023-02-06T06:09:41.600Z,72.32
2023-02-06T06:12:08.348Z,72.67
2023-02-06T06:14:35.099Z,73.83
2023-02-06T06:17:01.947Z,74.21
2023-02-06T06:19:28.583Z,74.08
2023-02-06T06:21:57.851Z,74.14
2023-02-06T06:24:25.690Z,74.19
2023-02-06T06:26:52.286Z,75.64
2023-02-06T06:29:18.937Z,75.71
2023-02-06T06:31:45.578Z,76.17
2023-02-06T06:34:12.300Z,76.83
2023-02-06T06:36:38.965Z,76.70
2023-02-06T06:39:05.620Z,75.83
2023-02-06T06:41:32.221Z,77.31
2023-02-06T06:43:59.153Z,76.03
2023-02-06T06:46:26.154Z,75.72
2023-02-06T06:48:52.860Z,76.50
2023-02-06T06:51:20.538Z,75.21
2023-02-06T06:53:47.150Z,75.59
2023-02-06T06:56:14.906Z,75.55
2023-02-06T06:58:41.856Z,75.40
2023-02-06T07:01:09.182Z,75.23
2023-02-06T07:03:35.983Z,75.32
2023-02-06T07:06:02.932Z,74.60
2023-02-06T07:08:29.637Z,75.11
2023-02-06T07:10:57.555Z,73.47
2023-02-06T07:13:24.212Z,73.17
2023-02-06T07:15:50.793Z,73.82
2023-02-06T07:18:17.385Z,74.34
2023-02-06T07:20:44.067Z,73.00
2023-02-06T07:23:10.666Z,73.92
2023-02-06T07:25:37.534Z,72.64
2023-02-06T07:28:04.555Z,73.73
2023-02-06T07:30:31.198Z,72.90
2023-02-06T07:32:57.901Z,72.65
2023-02-06T07:35:24.581Z,72.46
2023-02-06T07:37:53.786Z,72.24
2023-02-06T07:40:20.410Z,72.47
2023-02-06T07:42:47.028Z,72.53
2023-02-06T07:45:13.698Z,73.32
2023-02-06T07:47:40.337Z,72.59
2023-02-06T07:50:07.204Z,71.93
2023-02-06T07:52:33.981Z,71.02
2023-02-06T07:55:00.563Z,71.47
2023-02-06T07:57:27.506Z,71.30
2023-02-06T07:59:54.086Z,71.17
2023-02-06T08:02:20.689Z,71.22
2023-02-06T08:04:47.384Z,70.39
2023-02-06T08:07:16.771Z,71.40
2023-02-06T08:09:43.452Z,69.41
2023-02-06T08:12:11.878Z,68.97
2023-02-06T08:14:38.978Z,70.02
2023-02-06T08:17:05.715Z,69.27
2023-02-06T08:19:32.456Z,69.02
2023-02-06T08:21:59.082Z,68.45
2023-02-06T08:24:25.762Z,67.99
2023-02-06T08:26:52.374Z,65.36
2023-02-06T08:29:19.000Z,66.89
2023-02-06T08:31:45.679Z,65.44
2023-02-06T08:34:14.808Z,67.01
2023-02-06T08:36:43.557Z,65.80
2023-02-06T08:39:13.101Z,64.98
2023-02-06T08:41:41.583Z,64.61
2023-02-06T08:44:14.906Z,65.18
2023-02-06T08:46:42.529Z,64.56
2023-02-06T08:49:17.148Z,64.18
2023-02-06T08:51:44.837Z,65.09
2023-02-06T08:54:13.873Z,63.74
2023-02-06T08:56:40.521Z,63.86
2023-02-06T08:59:07.963Z,64.10
2023-02-06T09:01:35.985Z,62.07
2023-02-06T09:04:07.119Z,62.05
2023-02-06T09:06:39.115Z,63.25
2023-02-06T09:09:06.921Z,62.24
2023-02-06T09:11:33.920Z,62.36
2023-02-06T09:14:03.104Z,62.95
2023-02-06T09:16:30.837Z,63.44
2023-02-06T09:18:57.438Z,63.10
2023-02-06T09:21:25.514Z,61.27
2023-02-06T09:23:54.764Z,62.56
2023-02-06T09:26:24.304Z,62.74
2023-02-06T09:28:56.027Z,61.79
2023-02-06T09:31:22.777Z,62.24
2023-02-06T09:33:49.850Z,61.73
2023-02-06T09:36:18.882Z,60.66
2023-02-06T09:38:48.653Z,61.54
2023-02-06T09:41:30.528Z,60.06
2023-02-06T09:44:00.201Z,61.17
2023-02-06T09:46:33.106Z,60.34
2023-02-06T09:49:06.603Z,58.66
2023-02-06T09:51:49.244Z,60.10
2023-02-06T09:54:44.528Z,59.73
2023-02-06T09:57:24.786Z,60.79
2023-02-06T10:00:00.741Z,61.49
2023-02-06T10:02:30.359Z,59.58
2023-02-06T10:05:08.363Z,59.60
2023-02-06T10:07:44.066Z,58.64
2023-02-06T10:10:27.742Z,59.23
2023-02-06T10:13:49.656Z,58.89
2023-02-06T10:16:42.579Z,59.06
2023-02-06T10:19:16.368Z,60.06
2023-02-06T10:21:53.879Z,59.75
2023-02-06T10:24:29.441Z,58.17
2023-02-06T10:27:01.620Z,58.27
2023-02-06T10:29:31.368Z,57.37
2023-02-06T10:32:27.349Z,56.62
2023-02-06T10:35:14.429Z,55.64
2023-02-06T10:38:16.015Z,56.25
2023-02-06T10:41:04.557Z,56.79
2023-02-06T10:43:45.956Z,56.21
2023-02-06T10:46:35.381Z,56.37
2023-02-06T10:49:17.149Z,55.96
2023-02-06T10:51:46.840Z,55.51
2023-02-06T10:54:22.413Z,56.42
2023-02-06T10:56:51.529Z,55.37
2023-02-06T10:59:26.959Z,54.31
2023-02-06T11:02:10.489Z,54.00
2023-02-06T11:05:05.150Z,54.81
2023-02-06T11:07:39.344Z,54.58
2023-02-06T11:10:07.353Z,52.59
2023-02-06T11:13:03.572Z,54.45
2023-02-06T11:15:34.864Z,54.39
2023-02-06T11:18:05.417Z,53.49
2023-02-06T11:20:34.625Z,53.90
2023-02-06T11:23:27.112Z,52.99
2023-02-06T11:25:58.242Z,52.32
2023-02-06T11:28:26.041Z,51.83
2023-02-06T11:31:01.763Z,53.37
2023-02-06T11:33:50.827Z,52.77
2023-02-06T11:36:33.519Z,52.53
2023-02-06T11:39:06.163Z,51.60
2023-02-06T11:41:34.303Z,50.20
2023-02-06T11:44:03.113Z,51.41
2023-02-06T11:46:35.229Z,52.31
2023-02-06T11:49:19.760Z,51.82
2023-02-06T11:51:59.476Z,51.49
2023-02-06T11:54:27.229Z,51.10
2023-02-06T11:57:04.407Z,53.12
2023-02-06T11:59:32.916Z,53.22
2023-02-06T12:02:00.346Z,51.15
2023-02-06T12:04:40.488Z,50.03
2023-02-06T12:07:16.547Z,48.79
2023-02-06T12:09:43.182Z,51.50
2023-02-06T12:12:29.649Z,50.02
2023-02-06T12:15:21.678Z,49.67
2023-02-06T12:18:06.297Z,48.96
2023-02-06T12:20:35.892Z,49.56
2023-02-06T12:23:16.318Z,48.38
2023-02-06T12:25:49.325Z,49.27
2023-02-06T12:28:26.251Z,49.64
2023-02-06T12:30:59.342Z,50.38
2023-02-06T12:33:39.242Z,49.82
2023-02-06T12:36:19.718Z,49.90
2023-02-06T12:39:17.351Z,49.62
2023-02-06T12:42:02.307Z,49.57
2023-02-06T12:44:38.760Z,49.04
2023-02-06T12:47:05.343Z,49.38
2023-02-06T12:49:44.872Z,50.06
2023-02-06T12:52:23.897Z,49.24
2023-02-06T12:55:30.117Z,49.73
2023-02-06T12:57:57.543Z,49.14
2023-02-06T13:00:43.472Z,48.82
2023-02-06T13:03:30.089Z,48.95
2023-02-06T13:06:09.801Z,49.16
2023-02-06T13:08:36.334Z,48.53
2023-02-06T13:11:31.566Z,48.90
2023-02-06T13:14:24.722Z,47.43
2023-02-06T13:17:07.528Z,49.57
2023-02-06T13:19:37.100Z,49.79
2023-02-06T13:22:09.597Z,47.28
2023-02-06T13:25:22.126Z,48.07
2023-02-06T13:27:48.898Z,46.68
2023-02-06T13:30:30.884Z,48.37
2023-02-06T13:33:09.156Z,47.49
2023-02-06T13:35:57.186Z,46.76
2023-02-06T13:38:24.229Z,48.92
2023-02-06T13:41:12.863Z,47.04
2023-02-06T13:43:42.299Z,48.68
2023-02-06T13:46:16.870Z,48.30
2023-02-06T13:49:22.022Z,47.62
2023-02-06T13:52:30.408Z,49.19
2023-02-06T13:55:21.952Z,48.50
2023-02-06T13:58:00.303Z,46.81
2023-02-06T14:00:34.228Z,49.22
2023-02-06T14:03:10.172Z,49.36
2023-02-06T14:06:04.934Z,49.61
2023-02-06T14:08:44.028Z,48.62
2023-02-06T14:11:18.138Z,49.88
2023-02-06T14:13:57.407Z,49.08
2023-02-06T14:16:38.980Z,49.08
2023-02-06T14:19:17.900Z,49.41
2023-02-06T14:22:06.190Z,49.35
2023-02-06T14:24:51.651Z,50.12
2023-02-06T14:27:41.036Z,49.61
2023-02-06T14:30:27.188Z,49.88
2023-02-06T14:33:16.050Z,49.23
2023-02-06T14:36:01.810Z,49.46
2023-02-06T14:38:55.917Z,49.12
2023-02-06T14:41:23.200Z,48.51
2023-02-06T14:43:51.401Z,49.44
2023-02-06T14:46:20.415Z,50.22
2023-02-06T14:48:55.223Z,48.83
2023-02-06T14:51:40.852Z,48.42
2023-02-06T14:54:30.016Z,49.51
2023-02-06T14:56:59.379Z,50.41
2023-02-06T14:59:26.568Z,48.75
2023-02-06T15:01:57.157Z,48.64
2023-02-06T15:04:30.170Z,49.29
2023-02-06T15:07:00.547Z,48.82
2023-02-06T15:09:57.403Z,50.14
2023-02-06T15:12:26.328Z,48.94
2023-02-06T15:15:01.599Z,49.89
2023-02-06T15:17:29.453Z,49.59
2023-02-06T15:19:56.225Z,50.30
2023-02-06T15:22:29.293Z,51.00
2023-02-06T15:25:09.339Z,51.23
2023-02-06T15:27:38.035Z,49.96
2023-02-06T15:30:24.086Z,50.66
2023-02-06T15:32:53.025Z,51.72
2023-02-06T15:35:25.142Z,51.95
2023-02-06T15:37:53.621Z,51.37
2023-02-06T15:40:31.255Z,50.86
2023-02-06T15:43:01.938Z,51.01
2023-02-06T15:45:38.851Z,50.32
2023-02-06T15:48:17.835Z,50.29
2023-02-06T15:51:42.010Z,51.79
2023-02-06T15:54:19.983Z,51.75
2023-02-06T15:56:58.708Z,52.79
2023-02-06T15:59:26.865Z,53.04
2023-02-06T16:01:57.062Z,52.32
2023-02-06T16:04:38.350Z,52.97
2023-02-06T16:07:25.159Z,52.83
2023-02-06T16:09:54.759Z,53.69
2023-02-06T16:12:22.865Z,54.12
2023-02-06T16:14:56.484Z,54.08
2023-02-06T16:17:35.316Z,54.46
2023-02-06T16:20:05.178Z,54.79
2023-02-06T16:22:35.129Z,53.54
2023-02-06T16:25:30.421Z,53.74
2023-02-06T16:27:58.693Z,54.94
2023-02-06T16:30:35.082Z,54.89
2023-02-06T16:33:33.100Z,54.41
2023-02-06T16:35:59.972Z,54.58
2023-02-06T16:38:26.798Z,54.91
2023-02-06T16:40:53.523Z,55.34
2023-02-06T16:43:20.156Z,55.59
2023-02-06T16:45:47.647Z,55.98
2023-02-06T16:48:16.529Z,55.98
2023-02-06T16:50:44.838Z,56.08
2023-02-06T16:53:24.553Z,56.10
2023-02-06T16:55:52.134Z,57.38
2023-02-06T16:58:22.993Z,57.15
2023-02-06T17:00:50.661Z,56.79
2023-02-06T17:03:17.630Z,56.53
2023-02-06T17:05:46.719Z,56.21
2023-02-06T17:08:25.066Z,56.65
2023-02-06T17:10:52.176Z,56.73
2023-02-06T17:13:21.339Z,56.72
2023-02-06T17:15:49.347Z,57.16
2023-02-06T17:18:18.294Z,57.42
2023-02-06T17:20:47.879Z,57.57
2023-02-06T17:23:14.579Z,56.86
2023-02-06T17:25:43.057Z,58.01
2023-02-06T17:28:17.794Z,58.51
2023-02-06T17:30:44.718Z,58.22
2023-02-06T17:33:11.498Z,58.87
2023-02-06T17:35:38.429Z,59.31
2023-02-06T17:38:07.934Z,59.29
2023-02-06T17:40:36.177Z,59.76
2023-02-06T17:43:04.082Z,59.13
2023-02-06T17:45:31.669Z,59.08
2023-02-06T17:47:58.309Z,59.14
2023-02-06T17:50:26.534Z,59.30
2023-02-06T17:52:53.810Z,60.17
2023-02-06T17:55:20.518Z,59.59
2023-02-06T17:57:47.353Z,59.87
2023-02-06T18:00:18.536Z,59.88
2023-02-06T18:02:45.252Z,59.98
2023-02-06T18:05:11.996Z,60.39
2023-02-06T18:07:39.390Z,61.12
2023-02-06T18:10:07.926Z,61.46
2023-02-06T18:12:34.928Z,60.46
2023-02-06T18:15:01.616Z,60.76
2023-02-06T18:17:28.273Z,60.50
2023-02-06T18:19:54.938Z,60.58
2023-02-06T18:22:21.738Z,60.30
2023-02-06T18:24:49.703Z,60.54
2023-02-06T18:27:17.794Z,61.34
2023-02-06T18:29:50.059Z,60.58
2023-02-06T18:32:18.474Z,61.01
2023-02-06T18:34:47.743Z,60.90
2023-02-06T18:37:14.640Z,60.87
2023-02-06T18:39:41.347Z,61.04
2023-02-06T18:42:08.034Z,61.45
2023-02-06T18:44:34.636Z,62.15
2023-02-06T18:47:01.206Z,62.31
2023-02-06T18:49:27.825Z,63.63
2023-02-06T18:51:54.460Z,64.11
2023-02-06T18:54:21.055Z,63.75
2023-02-06T18:56:49.736Z,62.82
2023-02-06T18:59:16.522Z,62.84
2023-02-06T19:01:43.161Z,62.92
2023-02-06T19:04:09.965Z,62.79
2023-02-06T19:06:36.865Z,62.85
2023-02-06T19:09:05.639Z,62.36
2023-02-06T19:11:32.978Z,61.96
2023-02-06T19:13:59.596Z,61.88
2023-02-06T19:16:26.306Z,61.72
2023-02-06T19:18:52.982Z,61.54
2023-02-06T19:21:21.484Z,61.33
2023-02-06T19:23:54.169Z,61.92
2023-02-06T19:26:20.821Z,60.97
2023-02-06T19:28:47.496Z,60.70
2023-02-06T19:31:14.459Z,61.12
2023-02-06T19:33:41.541Z,61.74
2023-02-06T19:36:10.896Z,60.76
2023-02-06T19:38:38.205Z,61.50
2023-02-06T19:41:19.519Z,61.53
2023-02-06T19:43:46.932Z,61.78
2023-02-06T19:46:18.282Z,61.19
2023-02-06T19:48:46.578Z,62.07
2023-02-06T19:51:16.307Z,61.90
2023-02-06T19:53:43.806Z,62.17
2023-02-06T19:56:14.397Z,62.38
2023-02-06T19:58:41.029Z,62.56
2023-02-06T20:01:12.931Z,62.42
2023-02-06T20:03:40.205Z,63.06
2023-02-06T20:06:09.592Z,62.91
2023-02-06T20:08:37.815Z,63.03
2023-02-06T20:11:09.852Z,63.09
2023-02-06T20:13:37.542Z,63.14
2023-02-06T20:16:05.330Z,63.49
2023-02-06T20:18:33.499Z,64.19
2023-02-06T20:21:00.495Z,64.32
2023-02-06T20:23:27.856Z,64.53
2023-02-06T20:25:55.074Z,64.26
2023-02-06T20:28:23.480Z,64.87
2023-02-06T20:30:50.175Z,64.73
2023-02-06T20:33:16.888Z,65.49
2023-02-06T20:35:45.625Z,65.57
2023-02-06T20:38:12.532Z,65.72
2023-02-06T20:40:39.322Z,65.37
2023-02-06T20:43:06.017Z,65.88
2023-02-06T20:45:33.839Z,65.71
2023-02-06T20:48:00.432Z,65.43
2023-02-06T20:50:29.225Z,66.27
2023-02-06T20:52:56.665Z,65.22
2023-02-06T20:55:23.294Z,64.29
2023-02-06T20:57:49.954Z,65.92
2023-02-06T21:00:16.911Z,65.47
2023-02-06T21:02:43.523Z,65.06
2023-02-06T21:05:10.153Z,65.39
2023-02-06T21:07:36.804Z,65.85
2023-02-06T21:10:04.277Z,66.54
2023-02-06T21:12:30.872Z,66.18
2023-02-06T21:14:57.466Z,66.15
2023-02-06T21:17:24.051Z,65.99
2023-02-06T21:19:50.810Z,64.56
2023-02-06T21:22:17.402Z,64.44
2023-02-06T21:24:43.995Z,66.86
2023-02-06T21:27:10.680Z,68.17
2023-02-06T21:29:37.377Z,67.83
2023-02-06T21:32:13.617Z,69.27
2023-02-06T21:34:42.101Z,68.19
2023-02-06T21:37:09.305Z,68.10
2023-02-06T21:39:35.927Z,67.61
2023-02-06T21:42:02.518Z,67.65
2023-02-06T21:44:29.144Z,68.39
2023-02-06T21:46:55.854Z,68.88
2023-02-06T21:49:22.947Z,67.78
2023-02-06T21:51:50.645Z,67.10
2023-02-06T21:54:17.905Z,68.28
2023-02-06T21:56:44.550Z,69.21
2023-02-06T21:59:12.334Z,67.55
2023-02-06T22:01:39.071Z,69.11
2023-02-06T22:04:06.136Z,69.60
2023-02-06T22:06:33.644Z,69.32
2023-02-06T22:09:00.227Z,69.60
2023-02-06T22:11:30.099Z,68.51
2023-02-06T22:14:01.876Z,68.73
2023-02-06T22:16:29.044Z,69.38
2023-02-06T22:18:56.926Z,69.36
2023-02-06T22:21:26.053Z,68.90
2023-02-06T22:23:56.824Z,69.05
2023-02-06T22:26:23.688Z,69.22
2023-02-06T22:28:50.884Z,70.76
2023-02-06T22:31:26.847Z,69.82
2023-02-06T22:33:53.888Z,70.27
2023-02-06T22:36:24.770Z,69.98
2023-02-06T22:39:04.822Z,69.20
2023-02-06T22:41:31.573Z,69.23
2023-02-06T22:43:58.898Z,71.03
2023-02-06T22:46:28.351Z,70.44
2023-02-06T22:48:55.487Z,70.82
2023-02-06T22:51:23.127Z,71.05
2023-02-06T22:53:49.771Z,70.78
2023-02-06T22:56:22.739Z,70.41
2023-02-06T22:58:50.021Z,71.93
2023-02-06T23:01:18.772Z,73.60
2023-02-06T23:03:45.815Z,73.59
2023-02-06T23:06:14.482Z,73.44
2023-02-06T23:08:42.112Z,71.66
2023-02-06T23:11:09.510Z,71.61
2023-02-06T23:13:36.788Z,71.91
2023-02-06T23:16:04.361Z,72.50
2023-02-06T23:18:31.066Z,72.13
2023-02-06T23:21:01.534Z,71.58
2023-02-06T23:23:29.051Z,71.91
2023-02-06T23:25:56.648Z,72.11
2023-02-06T23:28:24.483Z,71.95
2023-02-06T23:30:51.789Z,72.57
2023-02-06T23:33:19.430Z,73.09
2023-02-06T23:35:46.066Z,72.95
2023-02-06T23:38:12.762Z,73.42
2023-02-06T23:40:39.666Z,73.14
2023-02-06T23:43:06.892Z,72.33
2023-02-06T23:45:33.927Z,72.92
2023-02-06T23:48:00.571Z,72.86
2023-02-06T23:50:27.703Z,73.43
2023-02-06T23:52:54.332Z,74.18
2023-02-06T23:55:21.670Z,73.95
2023-02-06T23:57:48.315Z,74.24
